Perrin, Texas
Current Conditions -  °F | °C
As of 8:55 PM on Wednesday 26 Nov 2014 (Local Time) from KXBP Reporting Station
Clear Clear  
Wind Chill: 43°   Ceiling: Unl
Heat Index: 45°   Visibility: 10mi
Dew Point: 36°   Wind: 5mph
Humidity: 71%   Direction: 360°N
Pressure: 30.37"   Gusts: NA
Location:  33.03°N, 98.07°W
Report Text: KXBP 270255Z AUTO 36004KT 10SM CLR 07/02 A3037 RMK AO2 T00720022
Loading
Personal Weather Stations






























Interactive Weather Map New forecast layout! Learn more

10-Day Weather Forecast

Advertisements
Track Severe Weather on mobile